createdAt,value
2023-05-22T00:01:37.890Z,7.60
2023-05-22T00:04:24.270Z,9.10
2023-05-22T00:07:11.013Z,13.17
2023-05-22T00:09:57.343Z,11.30
2023-05-22T00:12:43.720Z,12.70
2023-05-22T00:15:30.430Z,15.33
2023-05-22T00:18:18.075Z,11.13
2023-05-22T00:21:04.554Z,9.47
2023-05-22T00:23:51.297Z,11.03
2023-05-22T00:26:37.285Z,12.27
2023-05-22T00:29:23.857Z,13.33
2023-05-22T00:32:10.329Z,10.87
2023-05-22T00:34:58.197Z,12.63
2023-05-22T00:37:46.162Z,7.57
2023-05-22T00:40:33.051Z,7.43
2023-05-22T00:43:19.631Z,12.13
2023-05-22T00:46:07.654Z,11.87
2023-05-22T00:48:54.258Z,8.57
2023-05-22T00:51:42.302Z,8.83
2023-05-22T00:54:28.578Z,9.70
2023-05-22T00:57:15.410Z,8.70
2023-05-22T01:00:02.331Z,7.83
2023-05-22T01:02:48.960Z,10.13
2023-05-22T01:05:35.602Z,14.73
2023-05-22T01:08:23.769Z,12.57
2023-05-22T01:11:13.859Z,8.90
2023-05-22T01:14:05.334Z,11.83
2023-05-22T01:16:54.676Z,13.40
2023-05-22T01:19:54.061Z,11.30
2023-05-22T01:23:02.811Z,8.87
2023-05-22T01:26:02.855Z,14.47
2023-05-22T01:29:13.144Z,17.80
2023-05-22T01:32:02.317Z,12.47
2023-05-22T01:34:52.689Z,13.10
2023-05-22T01:37:39.826Z,11.13
2023-05-22T01:40:26.667Z,13.73
2023-05-22T01:43:13.818Z,13.90
2023-05-22T01:46:01.630Z,11.73
2023-05-22T01:48:49.503Z,15.43
2023-05-22T01:51:40.239Z,11.50
2023-05-22T01:54:30.331Z,13.70
2023-05-22T01:57:19.958Z,12.10
2023-05-22T02:00:10.030Z,12.70
2023-05-22T02:02:58.586Z,7.87
2023-05-22T02:05:47.345Z,10.53
2023-05-22T02:08:34.694Z,10.93
2023-05-22T02:11:22.736Z,10.97
2023-05-22T02:14:12.319Z,12.27
2023-05-22T02:16:59.053Z,12.97
2023-05-22T02:19:45.275Z,10.97
2023-05-22T02:22:33.276Z,13.47
2023-05-22T02:25:19.798Z,11.70
2023-05-22T02:28:06.338Z,12.50
2023-05-22T02:30:53.074Z,13.43
2023-05-22T02:33:39.870Z,12.50
2023-05-22T02:36:27.547Z,11.83
2023-05-22T02:39:15.641Z,12.60
2023-05-22T02:42:01.959Z,13.17
2023-05-22T02:44:48.478Z,11.13
2023-05-22T02:47:35.092Z,10.03
2023-05-22T02:50:21.383Z,11.13
2023-05-22T02:53:08.520Z,10.27
2023-05-22T02:55:59.026Z,10.60
2023-05-22T02:58:45.960Z,11.90
2023-05-22T03:01:32.164Z,9.83
2023-05-22T03:04:18.431Z,11.40
2023-05-22T03:07:05.535Z,10.90
2023-05-22T03:09:52.240Z,8.27
2023-05-22T03:12:40.406Z,9.70
2023-05-22T03:15:26.868Z,10.43
2023-05-22T03:18:13.262Z,10.23
2023-05-22T03:20:59.560Z,12.53
2023-05-22T03:23:46.035Z,9.57
2023-05-22T03:26:32.636Z,14.23
2023-05-22T03:29:20.603Z,10.10
2023-05-22T03:32:07.457Z,8.87
2023-05-22T03:34:54.014Z,15.43
2023-05-22T03:37:41.334Z,8.53
2023-05-22T03:40:27.865Z,8.93
2023-05-22T03:43:14.486Z,13.50
2023-05-22T03:46:02.166Z,10.13
2023-05-22T03:48:48.560Z,10.07
2023-05-22T03:51:34.911Z,8.33
2023-05-22T03:54:21.355Z,10.03
2023-05-22T03:57:07.863Z,10.63
2023-05-22T03:59:54.645Z,7.83
2023-05-22T04:02:45.294Z,8.33
2023-05-22T04:05:32.401Z,11.03
2023-05-22T04:08:19.251Z,11.10
2023-05-22T04:11:06.100Z,8.23
2023-05-22T04:13:53.051Z,9.50
2023-05-22T04:16:39.722Z,11.60
2023-05-22T04:19:28.385Z,10.73
2023-05-22T04:22:15.015Z,11.20
2023-05-22T04:25:01.962Z,12.27
2023-05-22T04:27:49.172Z,10.33
2023-05-22T04:30:37.675Z,10.37
2023-05-22T04:33:24.619Z,12.40
2023-05-22T04:36:13.110Z,10.67
2023-05-22T04:39:00.442Z,15.13
2023-05-22T04:41:46.743Z,14.77
2023-05-22T04:44:34.431Z,13.27
2023-05-22T04:47:22.315Z,13.77
2023-05-22T04:50:09.159Z,11.03
2023-05-22T04:52:57.502Z,12.93
2023-05-22T04:55:44.475Z,12.17
2023-05-22T04:58:31.082Z,13.10
2023-05-22T05:01:17.902Z,15.87
2023-05-22T05:04:04.579Z,13.30
2023-05-22T05:06:52.931Z,16.97
2023-05-22T05:09:40.853Z,15.40
2023-05-22T05:12:27.295Z,14.77
2023-05-22T05:15:14.085Z,12.80
2023-05-22T05:18:00.289Z,16.27
2023-05-22T05:20:46.682Z,20.57
2023-05-22T05:23:33.723Z,14.90
2023-05-22T05:26:24.141Z,16.37
2023-05-22T05:29:10.853Z,13.67
2023-05-22T05:31:57.121Z,15.27
2023-05-22T05:34:43.523Z,15.83
2023-05-22T05:37:29.969Z,18.27
2023-05-22T05:40:16.703Z,13.53
2023-05-22T05:43:05.576Z,10.73
2023-05-22T05:45:53.154Z,12.67
2023-05-22T05:48:39.814Z,9.33
2023-05-22T05:51:26.641Z,7.97
2023-05-22T05:54:13.228Z,10.03
2023-05-22T05:56:59.756Z,9.07
2023-05-22T05:59:47.549Z,9.10
2023-05-22T06:02:34.305Z,11.97
2023-05-22T06:05:21.110Z,9.47
2023-05-22T06:08:08.748Z,12.60
2023-05-22T06:10:55.461Z,8.87
2023-05-22T06:13:42.086Z,10.77
2023-05-22T06:16:30.107Z,10.20
2023-05-22T06:19:16.458Z,8.77
2023-05-22T06:22:08.510Z,8.10
2023-05-22T06:24:55.434Z,8.47
2023-05-22T06:27:42.731Z,6.13
2023-05-22T06:30:39.563Z,6.83
2023-05-22T06:33:28.293Z,7.17
2023-05-22T06:36:14.538Z,6.03
2023-05-22T06:39:01.069Z,7.97
2023-05-22T06:41:48.847Z,6.17
2023-05-22T06:44:35.539Z,4.33
2023-05-22T06:47:21.912Z,4.90
2023-05-22T06:50:10.796Z,4.97
2023-05-22T06:52:57.112Z,4.43
2023-05-22T06:55:43.562Z,4.37
2023-05-22T06:58:29.970Z,4.17
2023-05-22T07:01:16.559Z,4.37
2023-05-22T07:04:05.313Z,5.03
2023-05-22T07:06:53.313Z,5.40
2023-05-22T07:09:39.679Z,4.73
2023-05-22T07:12:26.780Z,5.07
2023-05-22T07:15:14.726Z,4.40
2023-05-22T07:18:01.915Z,3.93
2023-05-22T07:20:48.497Z,5.20
2023-05-22T07:23:36.533Z,5.07
2023-05-22T07:26:23.602Z,4.60
2023-05-22T07:29:10.312Z,5.00
2023-05-22T07:31:56.777Z,8.00
2023-05-22T07:34:44.446Z,6.67
2023-05-22T07:37:31.872Z,4.17
2023-05-22T07:40:19.688Z,4.07
2023-05-22T07:43:06.071Z,5.53
2023-05-22T07:45:54.257Z,3.90
2023-05-22T07:48:43.305Z,4.53
2023-05-22T07:51:29.927Z,5.30
2023-05-22T07:54:16.369Z,5.20
2023-05-22T07:57:04.498Z,8.23
2023-05-22T07:59:51.045Z,4.77
2023-05-22T08:02:37.537Z,4.73
2023-05-22T08:05:24.019Z,4.77
2023-05-22T08:08:12.020Z,4.00
2023-05-22T08:13:49.745Z,5.93
2023-05-22T08:16:36.412Z,4.90
2023-05-22T08:19:23.117Z,5.70
2023-05-22T08:22:09.543Z,3.90
2023-05-22T08:24:56.118Z,4.80
2023-05-22T08:27:43.439Z,5.17
2023-05-22T08:30:31.959Z,6.73
2023-05-22T08:33:19.806Z,5.97
2023-05-22T08:36:06.725Z,8.47
2023-05-22T08:38:53.546Z,4.10
2023-05-22T08:41:40.199Z,5.33
2023-05-22T08:44:26.808Z,5.30
2023-05-22T08:47:15.632Z,3.63
2023-05-22T08:50:02.688Z,4.00
2023-05-22T08:52:51.954Z,4.80
2023-05-22T08:55:38.320Z,4.37
2023-05-22T08:58:25.695Z,5.43
2023-05-22T09:01:11.967Z,6.57
2023-05-22T09:04:01.809Z,4.43
2023-05-22T09:06:48.568Z,4.57
2023-05-22T09:09:37.720Z,4.70
2023-05-22T09:12:26.574Z,3.73
2023-05-22T09:15:13.912Z,3.93
2023-05-22T09:18:01.423Z,4.77
2023-05-22T09:20:49.341Z,6.13
2023-05-22T09:23:36.014Z,11.53
2023-05-22T09:26:22.493Z,5.27
2023-05-22T09:29:12.347Z,4.17
2023-05-22T09:32:00.439Z,4.07
2023-05-22T09:34:47.458Z,3.97
2023-05-22T09:37:36.268Z,4.80
2023-05-22T09:40:23.194Z,5.10
2023-05-22T09:43:10.221Z,5.83
2023-05-22T09:46:02.420Z,6.67
2023-05-22T09:48:52.479Z,4.60
2023-05-22T09:51:41.139Z,5.90
2023-05-22T09:54:30.318Z,4.63
2023-05-22T09:57:19.360Z,3.70
2023-05-22T10:00:10.676Z,4.50
2023-05-22T10:03:03.653Z,5.87
2023-05-22T10:05:53.137Z,3.73
2023-05-22T10:08:43.258Z,4.20
2023-05-22T10:11:31.904Z,5.40
2023-05-22T10:14:18.199Z,4.23
2023-05-22T10:17:07.014Z,3.50
2023-05-22T10:19:54.421Z,3.23
2023-05-22T10:22:41.779Z,7.13
2023-05-22T10:25:28.668Z,4.60
2023-05-22T10:28:34.262Z,4.10
2023-05-22T10:31:30.516Z,4.23
2023-05-22T10:34:22.487Z,3.83
2023-05-22T10:37:19.510Z,6.87
2023-05-22T10:40:10.054Z,4.23
2023-05-22T10:43:00.252Z,2.97
2023-05-22T10:45:49.559Z,3.97
2023-05-22T10:48:39.895Z,3.80
2023-05-22T10:51:26.655Z,3.43
2023-05-22T10:54:12.854Z,4.90
2023-05-22T10:57:10.765Z,5.30
2023-05-22T11:00:07.476Z,3.00
2023-05-22T11:03:17.193Z,3.73
2023-05-22T11:06:04.494Z,5.17
2023-05-22T11:08:51.206Z,3.77
2023-05-22T11:11:37.759Z,4.03
2023-05-22T11:14:27.392Z,3.43
2023-05-22T11:17:15.025Z,5.20
2023-05-22T11:20:05.271Z,3.67
2023-05-22T11:22:53.067Z,3.27
2023-05-22T11:25:41.446Z,4.60
2023-05-22T11:28:28.107Z,3.43
2023-05-22T11:31:15.686Z,3.87
2023-05-22T11:34:02.368Z,5.20
2023-05-22T11:36:50.444Z,3.27
2023-05-22T11:39:36.926Z,3.83
2023-05-22T11:42:23.734Z,6.33
2023-05-22T11:45:10.920Z,3.70
2023-05-22T11:47:57.650Z,5.43
2023-05-22T11:50:44.651Z,3.47
2023-05-22T11:53:33.109Z,4.17
2023-05-22T11:56:21.705Z,3.47
2023-05-22T11:59:08.504Z,5.40
2023-05-22T12:01:55.565Z,3.40
2023-05-22T12:04:42.099Z,4.53
2023-05-22T12:07:28.948Z,4.07
2023-05-22T12:10:17.163Z,3.40
2023-05-22T12:13:03.999Z,4.03
2023-05-22T12:15:50.501Z,4.53
2023-05-22T12:18:36.958Z,3.83
2023-05-22T12:21:23.615Z,3.73
2023-05-22T12:24:10.377Z,4.83
2023-05-22T12:26:58.208Z,3.73
2023-05-22T12:29:44.959Z,4.53
2023-05-22T12:32:31.744Z,3.97
2023-05-22T12:35:19.645Z,3.70
2023-05-22T12:38:08.699Z,3.93
2023-05-22T12:40:56.280Z,4.03
2023-05-22T12:43:44.270Z,4.87
2023-05-22T12:46:31.578Z,3.07
2023-05-22T12:49:18.213Z,4.47
2023-05-22T12:52:04.842Z,5.60
2023-05-22T12:54:51.530Z,4.17
2023-05-22T12:57:37.969Z,4.73
2023-05-22T13:00:26.167Z,4.63
2023-05-22T13:03:13.303Z,4.93
2023-05-22T13:06:00.450Z,4.40
2023-05-22T13:08:46.983Z,4.33
2023-05-22T13:11:34.052Z,3.97
2023-05-22T13:14:21.388Z,7.20
2023-05-22T13:17:09.644Z,6.07
2023-05-22T13:19:56.468Z,5.63
2023-05-22T13:22:43.246Z,9.07
2023-05-22T13:25:29.771Z,4.97
2023-05-22T13:28:16.444Z,6.80
2023-05-22T13:31:03.067Z,11.83
2023-05-22T13:33:50.855Z,8.07
2023-05-22T13:36:37.037Z,6.87
2023-05-22T13:39:23.885Z,7.87
2023-05-22T13:42:10.505Z,5.43
2023-05-22T13:44:57.129Z,8.13
2023-05-22T13:47:43.702Z,5.03
2023-05-22T13:50:31.768Z,6.03
2023-05-22T13:53:21.300Z,7.77
2023-05-22T13:56:07.690Z,7.53
2023-05-22T13:58:54.183Z,5.60
2023-05-22T14:01:40.509Z,7.87
2023-05-22T14:04:27.268Z,6.50
2023-05-22T14:07:15.426Z,6.00
2023-05-22T14:10:02.027Z,7.80
2023-05-22T14:12:48.456Z,5.67
2023-05-22T14:15:35.191Z,9.23
2023-05-22T14:18:21.843Z,5.47
2023-05-22T14:21:08.733Z,7.83
2023-05-22T14:23:56.510Z,7.20
2023-05-22T14:26:43.116Z,6.63
2023-05-22T14:29:29.808Z,6.13
2023-05-22T14:32:16.493Z,5.50
2023-05-22T14:35:03.311Z,11.97
2023-05-22T14:37:49.878Z,7.10
2023-05-22T14:40:37.616Z,7.13
2023-05-22T14:43:24.118Z,7.13
2023-05-22T14:46:10.631Z,9.47
2023-05-22T14:48:57.320Z,7.03
2023-05-22T14:51:47.674Z,8.83
2023-05-22T14:54:34.476Z,6.30
2023-05-22T14:57:22.236Z,5.57
2023-05-22T15:00:10.125Z,6.33
2023-05-22T15:02:56.679Z,5.97
2023-05-22T15:05:43.557Z,7.63
2023-05-22T15:08:30.188Z,5.53
2023-05-22T15:11:16.964Z,7.63
2023-05-22T15:14:04.982Z,6.80
2023-05-22T15:16:51.429Z,7.17
2023-05-22T15:19:38.470Z,8.50
2023-05-22T15:22:25.130Z,6.77
2023-05-22T15:25:15.202Z,7.87
2023-05-22T15:28:02.625Z,12.07
2023-05-22T15:30:50.578Z,7.27
2023-05-22T15:33:36.883Z,5.70
2023-05-22T15:36:23.664Z,8.20
2023-05-22T15:39:10.173Z,6.57
2023-05-22T15:42:05.832Z,6.77
2023-05-22T15:44:52.848Z,6.43
2023-05-22T15:47:40.592Z,5.70
2023-05-22T15:50:27.082Z,4.90
2023-05-22T15:53:13.448Z,5.47
2023-05-22T15:55:59.959Z,6.70
2023-05-22T15:58:46.571Z,8.20
2023-05-22T16:01:33.254Z,6.10
2023-05-22T16:04:20.908Z,5.77
2023-05-22T16:07:07.516Z,6.30
2023-05-22T16:09:54.332Z,7.23
2023-05-22T16:12:41.098Z,9.43
2023-05-22T16:15:27.360Z,4.80
2023-05-22T16:18:14.118Z,10.23
2023-05-22T16:21:02.089Z,4.50
2023-05-22T16:23:48.587Z,4.37
2023-05-22T16:26:37.724Z,6.43
2023-05-22T16:29:24.327Z,7.73
2023-05-22T16:32:10.923Z,9.27
2023-05-22T16:34:57.415Z,6.70
2023-05-22T16:37:45.275Z,8.13
2023-05-22T16:40:31.843Z,8.17
2023-05-22T16:43:18.976Z,7.23
2023-05-22T16:46:05.421Z,10.67
2023-05-22T16:48:51.985Z,11.90
2023-05-22T16:51:37.983Z,8.80
2023-05-22T16:54:25.909Z,8.63
2023-05-22T16:57:12.326Z,9.13
2023-05-22T16:59:58.965Z,7.90
2023-05-22T17:02:45.769Z,9.07
2023-05-22T17:05:32.702Z,16.77
2023-05-22T17:08:19.106Z,8.53
2023-05-22T17:11:07.284Z,7.97
2023-05-22T17:13:53.695Z,13.13
2023-05-22T17:16:40.274Z,15.30
2023-05-22T17:19:27.075Z,10.27
2023-05-22T17:22:13.636Z,8.97
2023-05-22T17:24:59.945Z,13.73
2023-05-22T17:27:47.939Z,11.13
2023-05-22T17:30:34.694Z,7.87
2023-05-22T17:33:21.451Z,8.80
2023-05-22T17:36:07.848Z,11.27
2023-05-22T17:38:54.448Z,12.20
2023-05-22T17:41:41.011Z,9.63
2023-05-22T17:44:31.162Z,11.63
2023-05-22T17:47:18.453Z,7.73
2023-05-22T17:50:05.814Z,11.90
2023-05-22T17:52:52.394Z,10.27
2023-05-22T17:55:38.798Z,9.57
2023-05-22T17:58:25.512Z,7.07
2023-05-22T18:01:13.377Z,7.97
2023-05-22T18:04:00.672Z,8.17
2023-05-22T18:06:47.562Z,10.10
2023-05-22T18:09:34.175Z,7.37
2023-05-22T18:15:12.081Z,5.87
2023-05-22T18:17:59.830Z,6.33
2023-05-22T18:20:46.883Z,7.20
2023-05-22T18:23:33.386Z,7.13
2023-05-22T18:26:19.948Z,6.50
2023-05-22T18:29:06.952Z,4.90
2023-05-22T18:31:53.502Z,16.87
2023-05-22T18:34:41.904Z,10.90
2023-05-22T18:37:28.587Z,11.03
2023-05-22T18:40:15.402Z,7.07
2023-05-22T18:43:01.890Z,5.73
2023-05-22T18:45:48.544Z,5.87
2023-05-22T18:48:34.880Z,6.00
2023-05-22T18:51:22.899Z,6.50
2023-05-22T18:54:09.260Z,6.70
2023-05-22T18:56:55.773Z,9.00
2023-05-22T18:59:43.529Z,10.37
2023-05-22T19:02:30.038Z,7.70
2023-05-22T19:05:16.463Z,6.73
2023-05-22T19:08:05.112Z,8.57
2023-05-22T19:10:51.572Z,7.90
2023-05-22T19:13:37.915Z,9.53
2023-05-22T19:16:24.450Z,12.03
2023-05-22T19:19:11.787Z,9.63
2023-05-22T19:21:58.132Z,11.20
2023-05-22T19:24:46.297Z,10.27
2023-05-22T19:27:32.977Z,10.33
2023-05-22T19:30:19.403Z,8.60
2023-05-22T19:33:08.543Z,12.10
2023-05-22T19:35:55.508Z,12.43
2023-05-22T19:38:41.898Z,11.27
2023-05-22T19:41:29.616Z,12.13
2023-05-22T19:44:16.059Z,12.97
2023-05-22T19:47:02.833Z,14.43
2023-05-22T19:49:49.159Z,11.00
2023-05-22T19:52:35.638Z,10.43
2023-05-22T19:55:22.192Z,9.70
2023-05-22T19:58:10.278Z,8.17
2023-05-22T20:00:56.760Z,11.10
2023-05-22T20:03:43.511Z,10.27
2023-05-22T20:06:33.610Z,8.73
2023-05-22T20:09:19.847Z,12.00
2023-05-22T20:12:07.680Z,12.23
2023-05-22T20:14:55.859Z,11.37
2023-05-22T20:17:47.541Z,10.37
2023-05-22T20:20:34.237Z,12.97
2023-05-22T20:23:20.626Z,9.43
2023-05-22T20:26:07.244Z,8.73
2023-05-22T20:28:53.571Z,9.03
2023-05-22T20:31:41.434Z,8.53
2023-05-22T20:34:28.524Z,10.40
2023-05-22T20:37:15.513Z,7.00
2023-05-22T20:40:09.657Z,11.07
2023-05-22T20:42:57.194Z,6.60
2023-05-22T20:45:45.859Z,8.83
2023-05-22T20:48:34.101Z,9.03
2023-05-22T20:51:26.085Z,8.13
2023-05-22T20:54:12.542Z,8.83
2023-05-22T20:56:59.015Z,8.53
2023-05-22T20:59:45.741Z,6.73
2023-05-22T21:02:32.373Z,7.77
2023-05-22T21:05:20.195Z,10.57
2023-05-22T21:08:06.606Z,7.00
2023-05-22T21:10:53.247Z,8.47
2023-05-22T21:13:39.495Z,7.13
2023-05-22T21:16:26.056Z,6.73
2023-05-22T21:19:12.462Z,7.43
2023-05-22T21:22:00.222Z,8.23
2023-05-22T21:24:46.913Z,8.43
2023-05-22T21:27:33.614Z,9.20
2023-05-22T21:30:20.056Z,9.20
2023-05-22T21:33:06.641Z,13.23
2023-05-22T21:35:53.353Z,14.27
2023-05-22T21:38:41.229Z,10.50
2023-05-22T21:41:28.539Z,11.00
2023-05-22T21:44:15.329Z,13.27
2023-05-22T21:47:01.881Z,12.83
2023-05-22T21:49:48.539Z,22.47
2023-05-22T21:52:35.049Z,20.60
2023-05-22T21:55:22.723Z,18.17
2023-05-22T21:58:10.321Z,11.40
2023-05-22T22:00:56.941Z,13.27
2023-05-22T22:03:43.494Z,12.53
2023-05-22T22:06:30.129Z,15.13
2023-05-22T22:09:16.649Z,10.37
2023-05-22T22:12:04.779Z,10.43
2023-05-22T22:14:51.435Z,10.40
2023-05-22T22:17:38.274Z,7.90
2023-05-22T22:20:39.547Z,9.27
2023-05-22T22:23:30.350Z,8.27
2023-05-22T22:26:17.107Z,17.57
2023-05-22T22:29:04.974Z,11.20
2023-05-22T22:31:51.440Z,11.57
2023-05-22T22:34:38.218Z,8.23
2023-05-22T22:37:24.912Z,8.80
2023-05-22T22:40:11.901Z,13.73
2023-05-22T22:42:58.171Z,10.43
2023-05-22T22:45:46.339Z,16.03
2023-05-22T22:48:32.619Z,10.40
2023-05-22T22:51:19.308Z,9.90
2023-05-22T22:54:06.249Z,14.93
2023-05-22T22:56:52.922Z,9.73
2023-05-22T22:59:39.513Z,11.43
2023-05-22T23:02:27.422Z,11.90
2023-05-22T23:05:15.017Z,8.17
2023-05-22T23:08:02.207Z,11.97
2023-05-22T23:10:48.831Z,15.77
2023-05-22T23:13:35.606Z,10.03
2023-05-22T23:16:22.916Z,10.63
2023-05-22T23:19:11.962Z,10.57
2023-05-22T23:21:58.321Z,15.87
2023-05-22T23:24:44.763Z,14.03
2023-05-22T23:27:31.043Z,11.07
2023-05-22T23:30:17.557Z,13.33
2023-05-22T23:33:06.203Z,11.83
2023-05-22T23:35:53.970Z,11.30
2023-05-22T23:38:40.274Z,13.60
2023-05-22T23:41:27.609Z,11.27
2023-05-22T23:44:13.927Z,8.37
2023-05-22T23:47:00.419Z,11.93
2023-05-22T23:49:47.213Z,12.07
2023-05-22T23:52:34.974Z,13.70
2023-05-22T23:55:21.430Z,17.10
2023-05-22T23:58:08.329Z,29.03
